Flight Track Log - Related Links

Times and Time Zones

All times are in EDT time to prevent confusion due to time zone crossing. See the UAL4849 flight status page for this flight to view local times or setup timezone preferences in your user account.

Time Position Orientation Groundspeed Altitude Reporting Facility
EDT Latitude Longitude Course Direction KTS MPH feet Rate Location/Type
Wed 06:18:24 AM 43.1014 -77.6942 170° South 114 131 1,300  Level Cleveland Center
Wed 06:19:12 AM 43.0722 -77.6869 170° South 139 160 2,300 1,200 Climbing Cleveland Center
Wed 06:20:19 AM 43.0519 -77.6283 115° Southeast 164 189 3,600 1,143 Climbing Cleveland Center
Wed 06:20:57 AM 43.0428 -77.5947 110° East 166 191 4,300 1,286 Climbing Cleveland Center
Wed 06:21:57 AM 43.0203 -77.5361 118° Southeast 173 199 5,700 1,550 Climbing Cleveland Center
Wed 06:22:57 AM 42.9978 -77.4747 117° Southeast 173 199 7,400 1,550 Climbing Cleveland Center
Wed 06:23:57 AM 42.9753 -77.4106 116° Southeast 173 199 8,800 1,300 Climbing Cleveland Center
Wed 06:24:57 AM 42.9486 -77.3494 121° Southeast 173 199 10,000 1,150 Climbing Cleveland Center
Wed 06:25:57 AM 42.9258 -77.2797 114° Southeast 186 214 11,100 1,100 Climbing Cleveland Center
Wed 06:26:57 AM 42.9008 -77.2075 115° Southeast 198 228 12,200 950 Climbing Cleveland Center
Wed 06:27:57 AM 42.8736 -77.1325 116° Southeast 204 235 13,000 834 Climbing Cleveland Center
Wed 06:29:28 AM 42.8278 -77.0028 116° Southeast 228 262 14,300 783 Climbing New York Center
Wed 06:30:38 AM 42.7894 -76.9194 122° Southeast 229 264 15,100 323 Climbing Boston Center
Wed 06:31:38 AM 42.7550 -76.8406 121° Southeast 234 269 15,000 -50 Descending Boston Center
Wed 06:32:38 AM 42.7167 -76.7531 121° Southeast 249 287 15,000  Level Boston Center
Wed 06:33:38 AM 42.6781 -76.6686 122° Southeast 261 300 15,000 -200 Level Boston Center
Wed 06:34:38 AM 42.6436 -76.5900 121° Southeast 261 300 14,600 -600 Descending Boston Center
Wed 06:35:38 AM 42.6011 -76.4939 121° Southeast 273 314 13,800 -800 Descending Boston Center
Wed 06:36:38 AM 42.5603 -76.4094 123° Southeast 278 320 13,000 -800 Descending Boston Center
Wed 06:37:38 AM 42.5236 -76.3253 121° Southeast 267 307 12,200 -800 Descending Boston Center
Wed 06:38:38 AM 42.4886 -76.2472 121° Southeast 257 296 11,400 -600 Descending Boston Center
Wed 06:39:38 AM 42.4558 -76.1692 120° Southeast 247 284 11,000 -200 Descending Boston Center
Wed 06:40:38 AM 42.4228 -76.0969 122° Southeast 237 273 11,000  Level Boston Center
Wed 06:41:38 AM 42.3856 -76.0186 123° Southeast 242 278 11,000  Level Boston Center
Wed 06:42:38 AM 42.3506 -75.9381 120° Southeast 243 280 11,000  Level Boston Center
Wed 06:43:38 AM 42.3156 -75.8603 121° Southeast 249 287 11,000  Level Boston Center
Wed 06:44:38 AM 42.2725 -75.7681 122° Southeast 249 287 11,000  Level Boston Center
Wed 06:45:38 AM 42.2353 -75.6847 121° Southeast 254 292 11,000  Level Boston Center
Wed 06:46:38 AM 42.1958 -75.6014 123° Southeast 260 299 11,000  Level Boston Center
Wed 06:47:38 AM 42.1586 -75.5156 120° Southeast 260 299 11,000  Level Boston Center
Wed 06:48:50 AM 42.1192 -75.4322 123° Southeast 260 299 11,000  Level Boston Center
Wed 06:49:50 AM 42.0717 -75.3322 123° Southeast 260 299 11,000  Level Boston Center
Wed 06:51:02 AM 42.0383 -75.2467 118° Southeast 260 299 11,000 45 Level Boston Center
Wed 06:52:02 AM 41.9992 -75.1417 117° Southeast 260 299 11,100 50 Climbing Boston Center
Wed 06:53:02 AM 41.9639 -75.0536 118° Southeast 260 299 11,100  Level Boston Center
Wed 06:54:14 AM 41.9303 -74.9656 117° Southeast 266 306 11,100 -273 Level Boston Center
Wed 06:55:14 AM 41.8931 -74.8664 117° Southeast 271 312 10,500 -850 Descending Boston Center
Wed 06:56:14 AM 41.8556 -74.7647 116° Southeast 277 319 9,400 -1,000 Descending Boston Center
Wed 06:57:14 AM 41.8217 -74.6828 119° Southeast 277 319 8,500 -650 Descending Boston Center
Wed 06:58:14 AM 41.7861 -74.5867 116° Southeast 269 310 8,100 -200 Descending Boston Center
Wed 06:59:14 AM 41.7411 -74.5350 139° Southeast 255 293 8,100  Level Boston Center
Wed 07:00:14 AM 41.6597 -74.5464 186° South 229 264 8,100  Level Boston Center
Wed 07:01:14 AM 41.5947 -74.5581 188° South 250 288 8,100 -500 Level Boston Center
Wed 07:02:14 AM 41.5111 -74.5747 188° South 273 314 7,100 -900 Descending Boston Center
Wed 07:03:14 AM 41.4464 -74.5864 188° South 278 320 6,300 -500 Descending Boston Center
Wed 07:04:14 AM 41.3667 -74.6114 193° South 273 314 6,100 -99 Descending Boston Center
Wed 07:05:15 AM 41.3000 -74.6167 183° South 251 289 6,100  Level New York TRACON
Wed 07:06:15 AM 41.3000 -74.5333 90° East 251 289 6,100 -53 Level New York TRACON
Wed 07:07:09 AM 41.2667 -74.4500 118° Southeast 238 274 6,000 -53 Descending New York TRACON
Wed 07:08:09 AM 41.2167 -74.4000 143° Southeast 241 277 6,000  Level New York TRACON
Wed 07:09:09 AM 41.1667 -74.3833 166° South 258 297 6,000  Level New York TRACON
Wed 07:10:09 AM 41.1000 -74.4333 209° Southwest 262 302 6,000  Level New York TRACON
Wed 07:11:03 AM 41.0500 -74.4833 217° Southwest 258 297 6,000  Level New York TRACON
Wed 07:12:03 AM 40.9833 -74.5167 201° Southwest 257 296 6,000  Level New York TRACON
Wed 07:13:03 AM 40.9167 -74.5667 210° Southwest 256 295 6,000  Level New York TRACON
Wed 07:13:57 AM 40.8667 -74.5833 194° South 255 293 6,000  Level New York TRACON
Wed 07:15:03 AM 40.7833 -74.5667 171° South 282 325 6,000  Level New York TRACON
Wed 07:16:03 AM 40.7167 -74.5500 169° South 251 289 6,000  Level New York TRACON
Wed 07:17:03 AM 40.6500 -74.5167 159° South 233 268 6,000  Level New York TRACON
Wed 07:17:57 AM 40.6000 -74.5167 180° South 223 257 6,000  Level New York TRACON
Wed 07:18:57 AM 40.5500 -74.5000 166° South 221 254 6,000  Level New York TRACON
Wed 07:19:57 AM 40.4833 -74.4833 169° South 210 242 6,000 -350 Level New York TRACON
Wed 07:20:57 AM 40.4333 -74.4667 166° South 212 244 5,300 -850 Descending New York TRACON
Wed 07:21:57 AM 40.4000 -74.4167 131° Southeast 181 208 4,300 -1,000 Descending New York TRACON
Wed 07:22:51 AM 40.4333 -74.3667 49° Northeast 188 216 3,400 -684 Descending New York TRACON
Wed 07:23:51 AM 40.4667 -74.3333 37° Northeast 171 197 3,000 -200 Descending New York TRACON
Wed 07:24:51 AM 40.5000 -74.2833 49° Northeast 169 194 3,000  Level New York TRACON
Wed 07:25:51 AM 40.5333 -74.2667 21° North 158 182 3,000 -300 Level New York TRACON
Wed 07:26:51 AM 40.5833 -74.2333 27° Northeast 157 181 2,400 -750 Descending New York TRACON
Wed 07:27:51 AM 40.6167 -74.2167 21° North 158 182 1,500 -800 Descending New York TRACON
Wed 07:28:51 AM 40.6500 -74.1833 37° Northeast 144 166 800 -700 Descending New York TRACON

Login

Don't have an account? Register now (free) for customized features, flight alerts, and more!